地図

経路データ

SID SEASON NUMBER BASIN SUBBASIN NAME ISO_TIME NATURE LAT LON WMO_WIND WMO_PRES WMO_AGENCY TRACK_TYPE DIST2LAND LANDFALL IFLAG USA_AGENCY USA_ATCF_ID USA_LAT USA_LON USA_RECORD USA_STATUS USA_WIND USA_PRES USA_SSHS USA_R34_NE USA_R34_SE USA_R34_SW USA_R34_NW USA_R50_NE USA_R50_SE USA_R50_SW USA_R50_NW USA_R64_NE USA_R64_SE USA_R64_SW USA_R64_NW USA_POCI USA_ROCI USA_RMW USA_EYE TOKYO_LAT TOKYO_LON TOKYO_GRADE TOKYO_WIND TOKYO_PRES TOKYO_R50_DIR TOKYO_R50_LONG TOKYO_R50_SHORT TOKYO_R30_DIR TOKYO_R30_LONG TOKYO_R30_SHORT TOKYO_LAND CMA_LAT CMA_LON CMA_CAT CMA_WIND CMA_PRES HKO_LAT HKO_LON HKO_CAT HKO_WIND HKO_PRES NEWDELHI_LAT NEWDELHI_LON NEWDELHI_GRADE NEWDELHI_WIND NEWDELHI_PRES NEWDELHI_CI NEWDELHI_DP NEWDELHI_POCI REUNION_LAT REUNION_LON REUNION_TYPE REUNION_WIND REUNION_PRES REUNION_TNUM REUNION_CI REUNION_RMW REUNION_R34_NE REUNION_R34_SE REUNION_R34_SW REUNION_R34_NW REUNION_R50_NE REUNION_R50_SE REUNION_R50_SW REUNION_R50_NW REUNION_R64_NE REUNION_R64_SE REUNION_R64_SW REUNION_R64_NW BOM_LAT BOM_LON BOM_TYPE BOM_WIND BOM_PRES BOM_TNUM BOM_CI BOM_RMW BOM_R34_NE BOM_R34_SE BOM_R34_SW BOM_R34_NW BOM_R50_NE BOM_R50_SE BOM_R50_SW BOM_R50_NW BOM_R64_NE BOM_R64_SE BOM_R64_SW BOM_R64_NW BOM_ROCI BOM_POCI BOM_EYE BOM_POS_METHOD BOM_PRES_METHOD NADI_LAT NADI_LON NADI_CAT NADI_WIND NADI_PRES WELLINGTON_LAT WELLINGTON_LON WELLINGTON_WIND WELLINGTON_PRES DS824_LAT DS824_LON DS824_STAGE DS824_WIND DS824_PRES TD9636_LAT TD9636_LON TD9636_STAGE TD9636_WIND TD9636_PRES TD9635_LAT TD9635_LON TD9635_WIND TD9635_PRES TD9635_ROCI NEUMANN_LAT NEUMANN_LON NEUMANN_CLASS NEUMANN_WIND NEUMANN_PRES MLC_LAT MLC_LON MLC_CLASS MLC_WIND MLC_PRES USA_GUST BOM_GUST BOM_GUST_PER REUNION_GUST REUNION_GUST_PER USA_SEAHGT USA_SEARAD_NE USA_SEARAD_SE USA_SEARAD_SW USA_SEARAD_NW STORM_SPEED STORM_DIR
1893128N11121 1893 13 WP MM NOT_NAMED 1893-05-07 16:00:00 NR 11.2000 121.400 main 70 70 __________O___ -1 11.2000 121.400 4 8 273
1893128N11121 1893 13 WP MM NOT_NAMED 1893-05-07 18:00:00 NR 11.2128 121.128 main 98 98 __________P___ -1 11.2128 121.128 4 8 273
1893128N11121 1893 13 WP MM NOT_NAMED 1893-05-07 21:00:00 NR 11.2331 120.729 main 120 87 __________P___ -1 11.2331 120.729 4 8 273
1893128N11121 1893 13 WP MM NOT_NAMED 1893-05-08 00:00:00 NR 11.2572 120.351 main 87 43 __________P___ -1 11.2572 120.351 4 7 274
1893128N11121 1893 13 WP MM NOT_NAMED 1893-05-08 03:00:00 NR 11.2879 120.005 main 43 32 __________P___ -1 11.2879 120.005 4 7 276
1893128N11121 1893 13 WP MM NOT_NAMED 1893-05-08 04:00:00 NR 11.3000 119.900 main 32 10 __________O___ -1 11.3000 119.900 4 6 278
1893128N11121 1893 13 WP MM NOT_NAMED 1893-05-08 06:00:00 NR 11.3274 119.705 main 10 0 __________P___ -1 11.3274 119.705 4 5 280
1893128N11121 1893 13 WP MM NOT_NAMED 1893-05-08 09:00:00 NR 11.3751 119.444 main 15 15 __________P___ -1 11.3751 119.444 4 5 282
1893128N11121 1893 13 WP MM NOT_NAMED 1893-05-08 12:00:00 NR 11.4276 119.206 main 31 31 __________P___ -1 11.4276 119.206 4 5 283
1893128N11121 1893 13 WP MM NOT_NAMED 1893-05-08 15:00:00 NR 11.4820 118.977 main 55 55 __________P___ -1 11.4820 118.977 4 5 284
1893128N11121 1893 13 WP MM NOT_NAMED 1893-05-08 16:00:00 NR 11.5000 118.900 main 64 64 __________O___ -1 11.5000 118.900 4 5 281
1893128N11121 1893 13 WP MM NOT_NAMED 1893-05-08 18:00:00 NR 11.5280 118.744 main 83 83 __________P___ -1 11.5280 118.744 4 5 280
1893128N11121 1893 13 WP MM NOT_NAMED 1893-05-08 21:00:00 NR 11.5699 118.510 main 107 107 __________P___ -1 11.5699 118.510 4 5 281
1893128N11121 1893 13 WP MM NOT_NAMED 1893-05-09 00:00:00 NR 11.6173 118.265 main 128 128 __________P___ -1 11.6173 118.265 4 5 282
1893128N11121 1893 13 WP MM NOT_NAMED 1893-05-09 03:00:00 NR 11.6765 117.997 main 162 162 __________P___ -1 11.6765 117.997 4 6 283
1893128N11121 1893 13 WP MM NOT_NAMED 1893-05-09 04:00:00 NR 11.7000 117.900 main 172 172 __________O___ -1 11.7000 117.900 4 6 284
1893128N11121 1893 13 WP MM NOT_NAMED 1893-05-09 06:00:00 NR 11.7526 117.695 main 197 197 __________P___ -1 11.7526 117.695 4 7 285
1893128N11121 1893 13 WP MM NOT_NAMED 1893-05-09 09:00:00 NR 11.8440 117.362 main 228 238 __________P___ -1 11.8440 117.362 4 7 286
1893128N11121 1893 13 WP MM NOT_NAMED 1893-05-09 12:00:00 NR 11.9478 117.004 main 273 276 __________P___ -1 11.9478 117.004 4 8 287
1893128N11121 1893 13 WP MM NOT_NAMED 1893-05-09 15:00:00 NR 12.0608 116.628 main 321 321 __________P___ -1 12.0608 116.628 4 8 287
1893128N11121 1893 13 WP MM NOT_NAMED 1893-05-09 16:00:00 NR 12.1000 116.500 main 331 331 __________O___ -1 12.1000 116.500 4 8 287
1893128N11121 1893 13 WP MM NOT_NAMED 1893-05-09 18:00:00 NR 12.1749 116.245 main 366 366 __________P___ -1 12.1749 116.245 4 8 287
1893128N11121 1893 13 WP MM NOT_NAMED 1893-05-09 21:00:00 NR 12.2937 115.849 main 409 409 __________P___ -1 12.2937 115.849 4 8 287
1893128N11121 1893 13 WP MM NOT_NAMED 1893-05-10 00:00:00 NR 12.4199 115.444 main 444 444 __________P___ -1 12.4199 115.444 4 8 288
1893128N11121 1893 13 WP MM NOT_NAMED 1893-05-10 03:00:00 NR 12.5537 115.036 main 488 488 __________P___ -1 12.5537 115.036 4 8 289
1893128N11121 1893 13 WP MM NOT_NAMED 1893-05-10 04:00:00 NR 12.6000 114.900 main 495 495 __________O___ -1 12.6000 114.900 4 8 289
1893128N11121 1893 13 WP MM NOT_NAMED 1893-05-10 06:00:00 NR 12.6890 114.628 main 525 509 __________P___ -1 12.6890 114.628 4 8 289
1893128N11121 1893 13 WP MM NOT_NAMED 1893-05-10 09:00:00 NR 12.8287 114.220 main 509 466 __________P___ -1 12.8287 114.220 4 8 290
1893128N11121 1893 13 WP MM NOT_NAMED 1893-05-10 12:00:00 NR 12.9787 113.817 main 466 423 __________P___ -1 12.9787 113.817 4 8 292
1893128N11121 1893 13 WP MM NOT_NAMED 1893-05-10 15:00:00 NR 13.1420 113.427 main 423 413 __________P___ -1 13.1420 113.427 4 8 294
1893128N11121 1893 13 WP MM NOT_NAMED 1893-05-10 16:00:00 NR 13.2000 113.300 main 413 392 __________O___ -1 13.2000 113.300 4 8 295
1893128N11121 1893 13 WP MM NOT_NAMED 1893-05-10 18:00:00 NR 13.3112 113.060 main 392 353 __________P___ -1 13.3112 113.060 4 8 297
1893128N11121 1893 13 WP MM NOT_NAMED 1893-05-10 21:00:00 NR 13.4905 112.713 main 353 323 __________P___ -1 13.4905 112.713 4 8 299
1893128N11121 1893 13 WP MM NOT_NAMED 1893-05-11 00:00:00 NR 13.6905 112.371 main 326 291 __________P___ -1 13.6905 112.371 4 8 302
1893128N11121 1893 13 WP MM NOT_NAMED 1893-05-11 03:00:00 NR 13.9173 112.021 main 291 280 __________P___ -1 13.9173 112.021 4 8 304
1893128N11121 1893 13 WP MM NOT_NAMED 1893-05-11 04:00:00 NR 14.0000 111.900 main 280 250 __________O___ -1 14.0000 111.900 4 9 303
1893128N11121 1893 13 WP MM NOT_NAMED 1893-05-11 06:00:00 NR 14.1668 111.632 main 250 212 __________P___ -1 14.1668 111.632 4 10 304
1893128N11121 1893 13 WP MM NOT_NAMED 1893-05-11 09:00:00 NR 14.4419 111.216 main 212 182 __________P___ -1 14.4419 111.216 4 10 306
1893128N11121 1893 13 WP MM NOT_NAMED 1893-05-11 12:00:00 NR 14.7469 110.805 main 182 146 __________P___ -1 14.7469 110.805 4 10 310
1893128N11121 1893 13 WP MM NOT_NAMED 1893-05-11 15:00:00 NR 15.0817 110.419 main 146 140 __________P___ -1 15.0817 110.419 4 10 313
1893128N11121 1893 13 WP MM NOT_NAMED 1893-05-11 16:00:00 NR 15.2000 110.300 main 140 130 __________O___ -1 15.2000 110.300 4 10 318
1893128N11121 1893 13 WP MM NOT_NAMED 1893-05-11 18:00:00 NR 15.4410 110.080 main 130 111 __________P___ -1 15.4410 110.080 4 10 322
1893128N11121 1893 13 WP MM NOT_NAMED 1893-05-11 21:00:00 NR 15.8279 109.782 main 117 116 __________P___ -1 15.8279 109.782 4 10 326
1893128N11121 1893 13 WP MM NOT_NAMED 1893-05-12 00:00:00 NR 16.2368 109.516 main 123 120 __________P___ -1 16.2368 109.516 4 10 330
1893128N11121 1893 13 WP MM NOT_NAMED 1893-05-12 03:00:00 NR 16.6583 109.275 main 132 123 __________P___ -1 16.6583 109.275 4 10 332
1893128N11121 1893 13 WP MM NOT_NAMED 1893-05-12 04:00:00 NR 16.8000 109.200 main 131 131 __________O___ -1 16.8000 109.200 4 9 332
1893128N11121 1893 13 WP MM NOT_NAMED 1893-05-12 06:00:00 NR 17.0618 109.049 main 134 102 __________P___ -1 17.0618 109.049 4 9 333
1893128N11121 1893 13 WP MM NOT_NAMED 1893-05-12 09:00:00 NR 17.4605 108.842 main 102 64 __________P___ -1 17.4605 108.842 4 9 335
1893128N11121 1893 13 WP MM NOT_NAMED 1893-05-12 12:00:00 NR 17.8803 108.650 main 67 30 __________P___ -1 17.8803 108.650 4 10 338
1893128N11121 1893 13 WP MM NOT_NAMED 1893-05-12 15:00:00 NR 18.3369 108.463 main 30 23 __________P___ -1 18.3369 108.463 4 10 339
1893128N11121 1893 13 WP MM NOT_NAMED 1893-05-12 16:00:00 NR 18.5000 108.400 main 31 31 __________O___ -1 18.5000 108.400 4 12 340
1893128N11121 1893 13 WP MM NOT_NAMED 1893-05-12 18:00:00 NR 18.8779 108.251 main 42 47 __________P___ -1 18.8779 108.251 4 13 340
1893128N11121 1893 13 WP MM NOT_NAMED 1893-05-12 21:00:00 NR 19.4834 108.028 main 66 66 __________P___ -1 19.4834 108.028 4 13 341
1893128N11121 1893 13 WP MM NOT_NAMED 1893-05-13 00:00:00 NR 20.0878 107.820 main 108 49 __________P___ -1 20.0878 107.820 4 12 343
1893128N11121 1893 13 WP MM NOT_NAMED 1893-05-13 03:00:00 NR 20.6379 107.647 main 49 30 __________P___ -1 20.6379 107.647 4 11 344
1893128N11121 1893 13 WP MM NOT_NAMED 1893-05-13 04:00:00 NR 20.8000 107.600 main 30 10 __________O___ -1 20.8000 107.600 4 9 346
1893128N11121 1893 13 WP MM NOT_NAMED 1893-05-13 06:00:00 NR 21.0600 107.532 main 10 0 __________P___ -1 21.0600 107.532 4 7 348
1893128N11121 1893 13 WP MM NOT_NAMED 1893-05-13 09:00:00 NR 21.3807 107.468 main 0 0 __________P___ -1 21.3807 107.468 4 6 351
1893128N11121 1893 13 WP MM NOT_NAMED 1893-05-13 12:00:00 NR 21.6516 107.433 main 0 0 __________P___ -1 21.6516 107.433 4 5 354
1893128N11121 1893 13 WP MM NOT_NAMED 1893-05-13 15:00:00 NR 21.9101 107.409 main 0 0 __________P___ -1 21.9101 107.409 4 5 352
1893128N11121 1893 13 WP MM NOT_NAMED 1893-05-13 16:00:00 NR 22.0000 107.400 main 0 0 __________O___ -1 22.0000 107.400 4 6 354
1893128N11121 1893 13 WP MM NOT_NAMED 1893-05-13 18:00:00 NR 22.1913 107.377 main 0 0 __________P___ -1 22.1913 107.377 4 6 353
1893128N11121 1893 13 WP MM NOT_NAMED 1893-05-13 21:00:00 NR 22.5033 107.333 main 0 0 __________P___ -1 22.5033 107.333 4 7 352
1893128N11121 1893 13 WP MM NOT_NAMED 1893-05-14 00:00:00 NR 22.8372 107.279 main 0 0 __________P___ -1 22.8372 107.279 4 7 352
1893128N11121 1893 13 WP MM NOT_NAMED 1893-05-14 03:00:00 NR 23.1834 107.220 main 0 0 __________P___ -1 23.1834 107.220 4 7 351
1893128N11121 1893 13 WP MM NOT_NAMED 1893-05-14 04:00:00 NR 23.3000 107.200 main 0 __________O___ -1 23.3000 107.200 4 7 349

デジタル台風データ・検索

IBTrACS Databaseについて

本データベースは、米国NOAAが公開する1842年以降の世界の熱帯低気圧のベストトラックデータアーカイブInternational Best Track Archive for Climate Stewardship (IBTrACS)を、ウェブで閲覧しやすい形式に変換したものです。

最終更新日:2021-10-21